Terminal Aerodrome Forecast
Issued by NWS

Home | Current Version | Previous Version | Text Only | Print | Product List | Glossary On
Versions: 1 2 3 4 5 6 7 8 9 10 11 12 13 14 15 16 17 18 19 20 21
000
FTUS41 KPBZ 062329
TAFLBE
TAF
KLBE 062329Z 0700/0724 05008KT P6SM -RA OVC040
     FM070400 VRB04KT P6SM OVC025
     FM070900 VRB03KT P6SM OVC015
     FM071300 24005KT P6SM SCT025
     FM072100 26008KT 5SM -SHRA VCTS OVC035CB=

USA.gov is the U.S. government's official web portal to all federal, state and local government web resources and services.